Weather at North Jutland Ultralight Flying Club

Public forecast

Using degrees Celsius for public forecast. Weather courtesy of forecast.io.

Closest aviation weather report (METAR) to North Jutland Ultralight Flying Club

Report is more than 6 hours old.

Closest report is Aalborg Airport, 9.8 nm (18.1 km) SSW.

2022/11/14 15:20 (retrieved 2 years ago)

EKYT 141520Z AUTO 11012KT 9999 OVC009/// 10/08 Q1018

Closest aviation forecast (TAF) to North Jutland Ultralight Flying Club

Forecast is more than 12 hours old.

Closest forecast is Aalborg Airport, 9.8 nm (18.1 km) SSW.

2023/02/22 21:12 (retrieved 1 year ago)

TAF EKYT 222000Z 2221/2321 14010KT 8000 SCT010 BKN030 TEMPO 2221/2302 2000 RADZ BR BKN004 BECMG 2302/2304 0300 FG RADZ BKN001 TEMPO 2305/2311 2000 BR BKN003 BECMG 2311/2313 29010KT 9999 NSW BKN006 TEMPO 2313/2316 SCT030 BECMG 2320/2321 22015KT